Time;durP1;ratioP1;P1;durP2;ratioP2;P2;SDS_P1;SDS_P2;PMS_P1;PMS_P2;Temp;Humidity;BMP_temperature;BMP_pressure;BME280_temperature;BME280_humidity;BME280_pressure;Samples;Min_cycle;Max_cycle;Signal;HPM_P1;HPM_P2
2023/01/25 00:00:34;;;;;;;0.70;0.70;;;1.20;99.90;;;;;;5018234;27;20047;-92
2023/01/25 00:03:03;;;;;;;0.73;0.73;;;1.20;99.90;;;;;;5008210;27;20855;-89
2023/01/25 00:05:42;;;;;;;0.80;0.80;;;1.30;99.90;;;;;;5006079;27;20816;-89
2023/01/25 00:08:08;;;;;;;0.80;0.80;;;1.30;99.90;;;;;;4995945;27;20044;-90
2023/01/25 00:10:37;;;;;;;0.80;0.80;;;1.40;99.90;;;;;;5023415;27;20054;-89
2023/01/25 00:13:05;;;;;;;0.70;0.70;;;1.50;99.90;;;;;;5018906;27;20051;-89
2023/01/25 00:15:31;;;;;;;0.80;0.80;;;1.50;99.90;;;;;;5015643;27;20039;-89
2023/01/25 00:18:03;;;;;;;0.80;0.80;;;1.60;99.90;;;;;;5027498;27;20965;-90
2023/01/25 00:20:36;;;;;;;0.80;0.80;;;1.50;99.90;;;;;;5021268;27;20398;-89
2023/01/25 00:23:02;;;;;;;;;;;1.50;99.90;;;;;;5016030;27;20047;-89
2023/01/25 00:25:33;;;;;;;0.80;0.80;;;1.60;99.90;;;;;;5017849;27;20444;-89
2023/01/25 00:27:59;;;;;;;0.80;0.80;;;1.60;99.90;;;;;;5015313;27;20051;-89
2023/01/25 00:30:25;;;;;;;0.80;0.80;;;1.60;99.90;;;;;;5000247;27;20055;-88
2023/01/25 00:34:05;;;;;;;0.70;0.70;;;1.50;99.90;;;;;;5005264;27;20046;-88
2023/01/25 00:36:40;;;;;;;0.80;0.80;;;1.30;99.90;;;;;;4965913;28;20978;-88
2023/01/25 00:39:10;;;;;;;0.70;0.70;;;1.40;99.90;;;;;;4946104;28;20056;-88
2023/01/25 00:41:36;;;;;;;0.70;0.70;;;1.40;99.90;;;;;;4995020;27;20990;-88
2023/01/25 00:44:05;;;;;;;0.70;0.70;;;1.40;99.90;;;;;;5001449;27;20051;-89
2023/01/25 00:46:39;;;;;;;0.80;0.80;;;1.50;99.90;;;;;;5027347;27;20047;-89
2023/01/25 00:49:18;;;;;;;0.80;0.80;;;1.50;99.90;;;;;;5005161;27;20073;-88
2023/01/25 00:51:46;;;;;;;0.80;0.80;;;1.50;99.90;;;;;;5040327;27;20050;-89
2023/01/25 00:54:12;;;;;;;0.80;0.80;;;1.50;99.90;;;;;;5005854;27;20549;-88
2023/01/25 00:56:40;;;;;;;0.80;0.80;;;1.50;99.90;;;;;;5019208;27;21048;-88
2023/01/25 00:59:08;;;;;;;0.80;0.80;;;1.50;99.90;;;;;;4998596;27;20815;-89
2023/01/25 01:01:42;;;;;;;0.80;0.80;;;1.50;99.90;;;;;;5006426;27;20043;-89
2023/01/25 01:04:08;;;;;;;0.80;0.80;;;1.50;99.90;;;;;;5030624;27;20386;-89
2023/01/25 01:06:46;;;;;;;0.80;0.80;;;1.50;99.90;;;;;;5026259;27;20624;-89
2023/01/25 01:09:17;;;;;;;0.80;0.80;;;1.50;99.90;;;;;;5030717;27;20786;-89
2023/01/25 01:11:46;;;;;;;0.80;0.80;;;1.40;99.90;;;;;;5029876;27;20124;-89
2023/01/25 01:14:15;;;;;;;0.80;0.80;;;1.40;99.90;;;;;;5022750;27;20483;-89
2023/01/25 01:16:46;;;;;;;0.80;0.80;;;1.40;99.90;;;;;;5022932;27;20448;-89
2023/01/25 01:19:15;;;;;;;0.80;0.80;;;1.40;99.90;;;;;;5010370;27;20499;-89
2023/01/25 01:21:41;;;;;;;0.80;0.80;;;1.30;99.90;;;;;;5020651;27;20043;-88
2023/01/25 01:24:10;;;;;;;0.80;0.80;;;1.30;99.90;;;;;;5023853;27;20274;-90
2023/01/25 01:26:36;;;;;;;0.80;0.80;;;1.20;99.90;;;;;;5024462;27;20492;-89
2023/01/25 01:29:02;;;;;;;0.80;0.80;;;1.20;99.90;;;;;;5032839;27;20066;-90
2023/01/25 01:31:28;;;;;;;0.70;0.70;;;1.20;99.90;;;;;;5015306;27;20082;-88
2023/01/25 01:33:57;;;;;;;0.70;0.70;;;1.10;99.90;;;;;;5004522;27;20031;-90
2023/01/25 01:36:28;;;;;;;0.80;0.80;;;1.30;99.90;;;;;;5033415;27;20052;-90
2023/01/25 01:38:56;;;;;;;0.70;0.70;;;1.40;99.90;;;;;;5043132;27;20048;-89
2023/01/25 01:41:22;;;;;;;0.80;0.80;;;1.30;99.90;;;;;;5001970;27;20047;-89
2023/01/25 01:43:52;;;;;;;0.80;0.80;;;1.20;99.90;;;;;;5021091;27;20099;-90
2023/01/25 01:46:27;;;;;;;0.80;0.80;;;1.20;99.90;;;;;;5014530;27;20073;-90
2023/01/25 01:49:16;;;;;;;0.80;0.80;;;1.20;99.90;;;;;;5035685;27;20481;-90
2023/01/25 01:51:54;;;;;;;0.80;0.80;;;1.30;99.90;;;;;;5036651;27;20800;-90
2023/01/25 01:54:25;;;;;;;0.80;0.80;;;1.10;99.90;;;;;;5030865;27;20043;-89
2023/01/25 01:56:58;;;;;;;0.80;0.80;;;1.20;99.90;;;;;;5032380;27;20082;-90
2023/01/25 01:59:29;;;;;;;0.80;0.80;;;1.30;99.90;;;;;;5035876;27;20049;-90
2023/01/25 02:01:55;;;;;;;0.70;0.70;;;1.10;99.90;;;;;;5037562;27;20810;-90
2023/01/25 02:04:23;;;;;;;0.80;0.80;;;1.00;99.90;;;;;;5023356;27;20631;-89
2023/01/25 02:06:59;;;;;;;0.70;0.70;;;1.00;99.90;;;;;;5036695;27;20175;-89
2023/01/25 02:09:39;;;;;;;0.80;0.80;;;1.10;99.90;;;;;;5036491;27;20050;-89
2023/01/25 02:12:08;;;;;;;0.80;0.80;;;1.20;99.90;;;;;;5049985;27;20394;-90
2023/01/25 02:14:36;;;;;;;0.80;0.80;;;1.20;99.90;;;;;;5033649;27;20046;-90
2023/01/25 02:17:04;;;;;;;0.80;0.80;;;1.20;99.90;;;;;;5015932;27;20967;-90
2023/01/25 02:20:11;;;;;;;0.80;0.80;;;1.10;99.90;;;;;;5036249;27;20039;-90
2023/01/25 02:22:58;;;;;;;0.77;0.77;;;1.20;99.90;;;;;;5033027;27;20050;-90
2023/01/25 02:25:27;;;;;;;0.80;0.80;;;1.20;99.90;;;;;;5025675;27;20146;-90
2023/01/25 02:28:15;;;;;;;0.80;0.80;;;1.20;99.90;;;;;;5027768;27;20050;-89
2023/01/25 02:30:42;;;;;;;0.80;0.80;;;1.20;99.90;;;;;;5014908;27;20463;-89
2023/01/25 02:33:08;;;;;;;0.80;0.80;;;1.20;99.90;;;;;;5035758;27;20458;-90
2023/01/25 02:35:50;;;;;;;0.80;0.80;;;1.30;99.90;;;;;;5013062;27;20150;-90
2023/01/25 02:38:21;;;;;;;0.80;0.80;;;1.30;99.90;;;;;;5035563;27;20034;-90
2023/01/25 02:40:57;;;;;;;0.80;0.80;;;1.30;99.90;;;;;;5035338;27;20055;-90
2023/01/25 02:43:28;;;;;;;0.80;0.80;;;1.20;99.90;;;;;;5029247;27;20777;-90
2023/01/25 02:46:30;;;;;;;0.80;0.80;;;1.20;99.90;;;;;;5037510;27;20103;-89
2023/01/25 02:48:58;;;;;;;0.80;0.80;;;1.20;99.90;;;;;;5021640;27;21327;-89
2023/01/25 02:51:26;;;;;;;0.80;0.80;;;1.20;99.90;;;;;;5025419;27;20069;-89
2023/01/25 02:53:52;;;;;;;0.80;0.80;;;1.20;99.90;;;;;;5032184;27;20085;-89
2023/01/25 02:56:18;;;;;;;0.73;0.73;;;1.20;99.90;;;;;;5013928;27;20483;-90
2023/01/25 02:58:50;;;;;;;0.80;0.80;;;1.10;99.90;;;;;;5003486;27;20913;-89
2023/01/25 03:01:19;;;;;;;0.80;0.80;;;1.10;99.90;;;;;;5037221;27;20056;-90
2023/01/25 03:03:48;;;;;;;0.80;0.80;;;1.20;99.90;;;;;;5027762;27;20051;-90
2023/01/25 03:06:14;;;;;;;0.80;0.80;;;1.30;99.90;;;;;;5014558;27;20849;-90
2023/01/25 03:08:41;;;;;;;0.80;0.80;;;1.20;99.90;;;;;;5028024;27;20059;-90
2023/01/25 03:11:09;;;;;;;0.80;0.80;;;1.20;99.90;;;;;;5033113;27;20043;-89
2023/01/25 03:13:36;;;;;;;0.80;0.80;;;1.20;99.90;;;;;;5022466;27;20043;-89
2023/01/25 03:16:10;;;;;;;0.80;0.80;;;1.20;99.90;;;;;;5034651;27;20115;-90
2023/01/25 03:18:37;;;;;;;0.80;0.80;;;1.20;99.90;;;;;;5034495;27;20042;-90
2023/01/25 03:21:14;;;;;;;0.80;0.80;;;1.20;99.90;;;;;;5028865;27;20304;-88
2023/01/25 03:23:42;;;;;;;0.80;0.80;;;1.20;99.90;;;;;;5032190;27;20791;-89
2023/01/25 03:26:13;;;;;;;0.80;0.80;;;1.20;99.90;;;;;;5019730;27;20530;-90
2023/01/25 03:28:40;;;;;;;0.75;0.75;;;1.10;99.90;;;;;;5032636;27;20065;-90
2023/01/25 03:31:08;;;;;;;0.80;0.80;;;1.10;99.90;;;;;;5036815;27;20054;-90
2023/01/25 03:33:34;;;;;;;0.80;0.80;;;1.10;99.90;;;;;;5038318;27;20103;-90
2023/01/25 03:36:00;;;;;;;0.90;0.90;;;1.10;99.90;;;;;;5022941;27;20078;-90
2023/01/25 03:38:30;;;;;;;0.80;0.80;;;1.00;99.90;;;;;;5019354;27;20046;-90
2023/01/25 03:40:56;;;;;;;0.80;0.80;;;1.00;99.90;;;;;;5026085;27;20038;-90
2023/01/25 03:43:23;;;;;;;0.88;0.88;;;1.00;99.90;;;;;;5018909;27;20043;-90
2023/01/25 03:45:57;;;;;;;0.80;0.80;;;0.90;99.90;;;;;;5027152;27;20080;-90
2023/01/25 03:48:25;;;;;;;0.80;0.80;;;1.00;99.90;;;;;;5034673;27;20046;-90
2023/01/25 03:50:56;;;;;;;0.80;0.80;;;0.90;99.90;;;;;;5033049;27;20083;-90
2023/01/25 03:53:31;;;;;;;0.80;0.80;;;1.00;99.90;;;;;;5043166;27;20551;-89
2023/01/25 03:55:59;;;;;;;0.80;0.80;;;1.00;99.90;;;;;;5020281;27;20062;-90
2023/01/25 03:58:26;;;;;;;0.80;0.80;;;1.00;99.90;;;;;;5033300;27;20496;-89
2023/01/25 04:01:00;;;;;;;0.80;0.80;;;1.00;99.90;;;;;;5022259;27;20052;-90
2023/01/25 04:03:26;;;;;;;;;;;1.00;99.90;;;;;;5036030;27;20486;-90
2023/01/25 04:05:54;;;;;;;0.80;0.80;;;1.00;99.90;;;;;;5051945;27;20700;-90
2023/01/25 04:08:21;;;;;;;0.80;0.80;;;1.00;99.90;;;;;;5031749;27;20386;-91
2023/01/25 04:10:55;;;;;;;0.80;0.80;;;1.00;99.90;;;;;;5037290;27;20596;-89
2023/01/25 04:13:23;;;;;;;1.00;1.00;;;0.90;99.90;;;;;;5037394;27;20072;-90
2023/01/25 04:15:52;;;;;;;0.80;0.80;;;0.90;99.90;;;;;;5035752;27;20374;-90
2023/01/25 04:18:26;;;;;;;0.80;0.80;;;0.90;99.90;;;;;;5051015;27;20100;-90
2023/01/25 04:21:02;;;;;;;0.80;0.80;;;0.80;99.90;;;;;;5019821;27;20050;-90
2023/01/25 04:23:30;;;;;;;0.80;0.80;;;0.90;99.90;;;;;;5036611;27;20570;-91
2023/01/25 04:26:04;;;;;;;0.80;0.80;;;0.90;99.90;;;;;;5010148;27;20051;-90
2023/01/25 04:28:33;;;;;;;;;;;1.00;99.90;;;;;;5046048;27;20058;-90
2023/01/25 04:31:00;;;;;;;0.80;0.80;;;1.00;99.90;;;;;;5039304;27;19927;-90
2023/01/25 04:33:29;;;;;;;0.80;0.80;;;0.90;99.90;;;;;;5014316;27;20528;-90
2023/01/25 04:36:00;;;;;;;0.80;0.80;;;0.90;99.90;;;;;;5040630;27;20046;-90
2023/01/25 04:38:29;;;;;;;0.80;0.80;;;1.00;99.90;;;;;;5036039;27;20249;-90
2023/01/25 04:40:55;;;;;;;0.80;0.80;;;1.10;99.90;;;;;;5029857;27;20043;-91
2023/01/25 04:43:25;;;;;;;0.70;0.70;;;1.00;99.90;;;;;;5005253;27;20863;-91
2023/01/25 04:45:51;;;;;;;0.80;0.80;;;1.00;99.90;;;;;;5028566;27;20039;-91
2023/01/25 04:48:20;;;;;;;0.80;0.80;;;0.90;99.90;;;;;;5025426;27;20703;-90
2023/01/25 04:50:46;;;;;;;0.80;0.80;;;0.90;99.90;;;;;;5008529;27;20262;-91
2023/01/25 04:53:12;;;;;;;0.80;0.80;;;1.00;99.90;;;;;;5013251;27;20521;-91
2023/01/25 04:55:42;;;;;;;0.80;0.80;;;1.00;99.90;;;;;;5013948;27;20705;-90
2023/01/25 04:58:08;;;;;;;0.80;0.80;;;0.90;99.90;;;;;;5037339;27;20782;-91
2023/01/25 05:00:34;;;;;;;0.80;0.80;;;0.90;99.90;;;;;;5016699;27;20061;-91
2023/01/25 05:03:02;;;;;;;0.80;0.80;;;0.80;99.90;;;;;;5031871;27;20194;-91
2023/01/25 05:05:37;;;;;;;0.80;0.80;;;0.80;99.90;;;;;;5043947;27;20050;-89
2023/01/25 05:08:02;;;;;;;0.80;0.80;;;0.90;99.90;;;;;;5038102;27;20062;-91
2023/01/25 05:10:31;;;;;;;0.70;0.70;;;0.90;99.90;;;;;;5007590;27;20043;-91
2023/01/25 05:13:02;;;;;;;0.80;0.80;;;0.80;99.90;;;;;;5031580;27;20046;-91
2023/01/25 05:15:28;;;;;;;0.80;0.80;;;0.90;99.90;;;;;;5026216;27;20039;-91
2023/01/25 05:17:54;;;;;;;0.70;0.70;;;0.70;99.90;;;;;;5036213;27;20431;-91
2023/01/25 05:20:20;;;;;;;0.80;0.80;;;0.80;99.90;;;;;;5014495;27;20047;-91
2023/01/25 05:22:46;;;;;;;0.80;0.80;;;0.80;99.90;;;;;;5035770;27;20136;-90
2023/01/25 05:28:05;;;;;;;0.80;0.80;;;0.80;99.90;;;;;;5046113;27;20355;-90
2023/01/25 05:30:37;;;;;;;0.80;0.80;;;0.80;99.90;;;;;;5056932;27;20382;-91
2023/01/25 05:33:05;;;;;;;0.80;0.80;;;0.80;99.90;;;;;;5020434;27;20043;-90
2023/01/25 05:35:31;;;;;;;0.80;0.80;;;0.90;99.90;;;;;;5023874;27;20070;-90
2023/01/25 05:38:00;;;;;;;0.80;0.80;;;0.80;99.90;;;;;;5035543;27;20589;-91
2023/01/25 05:40:26;;;;;;;0.80;0.80;;;0.80;99.90;;;;;;5056487;27;20734;-90
2023/01/25 05:42:53;;;;;;;0.80;0.80;;;0.90;99.90;;;;;;5038334;27;20039;-90
2023/01/25 05:45:22;;;;;;;0.80;0.80;;;0.70;99.90;;;;;;5042881;27;20297;-91
2023/01/25 05:47:53;;;;;;;0.80;0.80;;;0.80;99.90;;;;;;5039205;27;20442;-90
2023/01/25 05:50:25;;;;;;;0.80;0.80;;;0.80;99.90;;;;;;5048922;27;20058;-90
2023/01/25 05:52:54;;;;;;;0.70;0.70;;;0.80;99.90;;;;;;5037851;27;20050;-90
2023/01/25 05:55:19;;;;;;;0.80;0.80;;;0.70;99.90;;;;;;5033471;27;20031;-90
2023/01/25 05:57:45;;;;;;;0.80;0.80;;;0.70;99.90;;;;;;5044426;27;20041;-91
2023/01/25 06:00:15;;;;;;;0.70;0.70;;;0.80;99.90;;;;;;5007470;27;20074;-90
2023/01/25 06:02:41;;;;;;;0.80;0.80;;;0.70;99.90;;;;;;5025907;27;20062;-90
2023/01/25 06:05:16;;;;;;;0.80;0.80;;;0.80;99.90;;;;;;5043082;27;20253;-90
2023/01/25 06:07:44;;;;;;;0.80;0.80;;;0.70;99.90;;;;;;5042588;27;20814;-89
2023/01/25 06:10:16;;;;;;;0.80;0.80;;;0.80;99.90;;;;;;5022621;27;20070;-89
2023/01/25 06:12:42;;;;;;;0.80;0.80;;;0.80;99.90;;;;;;5023748;27;20042;-89
2023/01/25 06:15:08;;;;;;;0.80;0.80;;;0.80;99.90;;;;;;5018415;27;20873;-91
2023/01/25 06:17:34;;;;;;;0.80;0.80;;;0.80;99.90;;;;;;5014509;27;20064;-90
2023/01/25 06:20:00;;;;;;;0.80;0.80;;;0.80;99.90;;;;;;5034542;27;20046;-90
2023/01/25 06:22:25;;;;;;;0.80;0.80;;;0.80;99.90;;;;;;5014163;27;20054;-90
2023/01/25 06:24:54;;;;;;;0.90;0.90;;;0.70;99.90;;;;;;5044191;27;20054;-89
2023/01/25 06:27:20;;;;;;;0.90;0.90;;;0.70;99.90;;;;;;5040216;27;20137;-88
2023/01/25 06:29:49;;;;;;;0.80;0.80;;;0.80;99.90;;;;;;5033501;27;20539;-91
2023/01/25 06:32:15;;;;;;;0.80;0.80;;;0.70;99.90;;;;;;5023188;27;20370;-91
2023/01/25 06:34:46;;;;;;;0.85;0.85;;;0.70;99.90;;;;;;5054643;27;20047;-91
2023/01/25 06:37:15;;;;;;;0.80;0.80;;;0.70;99.90;;;;;;5054680;27;20815;-91
2023/01/25 06:39:41;;;;;;;0.80;0.80;;;0.70;99.90;;;;;;5039060;27;20107;-90
2023/01/25 06:42:10;;;;;;;0.80;0.80;;;0.80;99.90;;;;;;5050785;27;20852;-91
2023/01/25 06:44:38;;;;;;;0.80;0.80;;;0.80;99.90;;;;;;5041867;27;20332;-91
2023/01/25 06:47:07;;;;;;;0.80;0.80;;;0.80;99.90;;;;;;5047183;27;20039;-91
2023/01/25 06:49:35;;;;;;;0.80;0.80;;;0.70;99.90;;;;;;5055121;27;20047;-92
2023/01/25 06:52:08;;;;;;;0.80;0.80;;;0.70;99.90;;;;;;5046632;27;20044;-91
2023/01/25 06:54:37;;;;;;;0.80;0.80;;;0.70;99.90;;;;;;5040432;27;20162;-91
2023/01/25 06:57:09;;;;;;;0.80;0.80;;;0.60;99.90;;;;;;5040602;27;20488;-91
2023/01/25 06:59:37;;;;;;;0.80;0.80;;;0.60;99.90;;;;;;5044471;27;20046;-90
2023/01/25 07:02:03;;;;;;;0.80;0.80;;;0.60;99.90;;;;;;5015064;27;20081;-90
2023/01/25 07:04:29;;;;;;;0.80;0.80;;;0.80;99.90;;;;;;5043890;27;20563;-91
2023/01/25 07:06:55;;;;;;;0.80;0.80;;;0.60;99.90;;;;;;5042036;27;20059;-92
2023/01/25 07:09:23;;;;;;;0.80;0.80;;;0.60;99.90;;;;;;5033855;27;20051;-90
2023/01/25 07:11:57;;;;;;;0.80;0.80;;;0.60;99.90;;;;;;5031751;27;20060;-92
2023/01/25 07:14:29;;;;;;;0.80;0.80;;;0.60;99.90;;;;;;5026687;27;20078;-91
2023/01/25 07:16:55;;;;;;;0.80;0.80;;;0.60;99.90;;;;;;5037990;27;20387;-91
2023/01/25 07:19:27;;;;;;;0.80;0.80;;;0.50;99.90;;;;;;5032682;27;20391;-90
2023/01/25 07:21:53;;;;;;;0.80;0.80;;;0.70;99.90;;;;;;5029428;27;20056;-90
2023/01/25 07:24:34;;;;;;;0.80;0.80;;;0.60;99.90;;;;;;5055813;27;20075;-90
2023/01/25 07:27:00;;;;;;;0.80;0.80;;;0.60;99.90;;;;;;5022327;27;20590;-90
2023/01/25 07:29:32;;;;;;;0.80;0.80;;;0.60;99.90;;;;;;5025021;27;20484;-91
2023/01/25 07:32:00;;;;;;;0.80;0.80;;;0.50;99.90;;;;;;5046537;27;20381;-90
2023/01/25 07:34:27;;;;;;;0.80;0.80;;;0.60;99.90;;;;;;5039164;27;20527;-89
2023/01/25 07:36:53;;;;;;;0.80;0.80;;;0.50;99.90;;;;;;5029324;27;20512;-91
2023/01/25 07:39:19;;;;;;;0.80;0.80;;;0.50;99.90;;;;;;5045421;27;20050;-90
2023/01/25 07:41:45;;;;;;;0.80;0.80;;;0.60;99.90;;;;;;5039739;27;20642;-89
2023/01/25 07:44:11;;;;;;;0.77;0.77;;;0.60;99.90;;;;;;5036074;27;20490;-88
2023/01/25 07:46:38;;;;;;;0.80;0.80;;;0.50;99.90;;;;;;5014601;27;21000;-91
2023/01/25 07:49:04;;;;;;;0.80;0.80;;;0.60;99.90;;;;;;5013095;27;20180;-89
2023/01/25 07:51:32;;;;;;;0.70;0.70;;;0.60;99.90;;;;;;5028433;27;20473;-92
2023/01/25 07:54:02;;;;;;;0.80;0.80;;;0.50;99.90;;;;;;5047331;27;20043;-88
2023/01/25 07:56:31;;;;;;;0.80;0.80;;;0.50;99.90;;;;;;5048363;27;20043;-90
2023/01/25 07:58:58;;;;;;;0.70;0.70;;;0.50;99.90;;;;;;5048785;27;20777;-89
2023/01/25 08:01:25;;;;;;;0.80;0.80;;;0.60;99.90;;;;;;5044382;27;20131;-89
2023/01/25 08:03:53;;;;;;;0.80;0.80;;;0.70;99.90;;;;;;5026853;27;20050;-89
2023/01/25 08:06:37;;;;;;;0.80;0.80;;;0.60;99.90;;;;;;5042235;27;20050;-90
2023/01/25 08:09:24;;;;;;;0.80;0.80;;;0.60;99.90;;;;;;5050605;27;20046;-88
2023/01/25 08:11:52;;;;;;;0.80;0.80;;;0.60;99.90;;;;;;5042425;27;20047;-90
2023/01/25 08:14:18;;;;;;;0.80;0.80;;;0.60;99.90;;;;;;5030782;27;20042;-89
2023/01/25 08:16:47;;;;;;;0.80;0.80;;;0.60;99.90;;;;;;5011238;27;20051;-91
2023/01/25 08:19:20;;;;;;;0.77;0.77;;;0.60;99.90;;;;;;5042637;27;20040;-90
2023/01/25 08:21:46;;;;;;;0.80;0.80;;;0.60;99.90;;;;;;5042777;27;20043;-90
2023/01/25 08:24:15;;;;;;;0.80;0.80;;;0.60;99.90;;;;;;5021393;27;20046;-89
2023/01/25 08:26:42;;;;;;;0.80;0.80;;;0.60;99.90;;;;;;5044924;27;20137;-88
2023/01/25 08:29:10;;;;;;;0.80;0.80;;;0.70;99.90;;;;;;5037117;27;20134;-90
2023/01/25 08:31:38;;;;;;;0.70;0.70;;;0.70;99.90;;;;;;5044011;27;20126;-90
2023/01/25 08:34:13;;;;;;;0.80;0.80;;;0.70;99.90;;;;;;5046652;27;20047;-89
2023/01/25 08:36:39;;;;;;;0.75;0.75;;;0.70;99.90;;;;;;5035697;27;20047;-89
2023/01/25 08:39:07;;;;;;;1.00;1.00;;;0.70;99.90;;;;;;5032862;27;20047;-89
2023/01/25 08:41:34;;;;;;;0.80;0.80;;;0.70;99.90;;;;;;5045983;27;20093;-90
2023/01/25 08:44:00;;;;;;;0.80;0.80;;;0.80;99.90;;;;;;5045217;27;20039;-89
2023/01/25 08:46:31;;;;;;;0.80;0.80;;;0.80;99.90;;;;;;5041472;27;20115;-90
2023/01/25 08:48:59;;;;;;;0.80;0.80;;;0.70;99.90;;;;;;5035245;27;20152;-92
2023/01/25 08:51:26;;;;;;;0.80;0.80;;;0.80;99.90;;;;;;5046831;27;20630;-91
2023/01/25 08:53:52;;;;;;;0.80;0.80;;;0.70;99.90;;;;;;5029837;27;20619;-88
2023/01/25 08:56:18;;;;;;;0.80;0.80;;;0.70;99.90;;;;;;5034897;27;20043;-88
2023/01/25 08:58:46;;;;;;;0.80;0.80;;;0.80;99.90;;;;;;5022543;27;20256;-90
2023/01/25 09:01:14;;;;;;;0.80;0.80;;;0.70;99.90;;;;;;5036549;27;20044;-88
2023/01/25 09:03:45;;;;;;;0.80;0.80;;;0.80;99.90;;;;;;5042410;27;20059;-89
2023/01/25 09:06:12;;;;;;;0.80;0.80;;;0.80;99.90;;;;;;5049177;27;20062;-91
2023/01/25 09:08:38;;;;;;;0.80;0.80;;;0.80;99.90;;;;;;5013490;27;20582;-90
2023/01/25 09:11:06;;;;;;;0.75;0.75;;;0.70;99.90;;;;;;5031564;27;20063;-89
2023/01/25 09:13:32;;;;;;;0.73;0.73;;;0.80;99.90;;;;;;5053441;27;20580;-89
2023/01/25 09:16:00;;;;;;;0.77;0.77;;;0.70;99.90;;;;;;5031132;27;20043;-90
2023/01/25 09:18:28;;;;;;;0.70;0.70;;;0.70;99.90;;;;;;5039013;27;20042;-90
2023/01/25 09:20:57;;;;;;;0.80;0.80;;;0.70;99.90;;;;;;5056986;27;20086;-89
2023/01/25 09:23:23;;;;;;;0.80;0.80;;;0.70;99.90;;;;;;4996928;27;20998;-88
2023/01/25 09:25:57;;;;;;;0.80;0.80;;;0.80;99.90;;;;;;5010823;27;20593;-88
2023/01/25 09:28:22;;;;;;;;;;;0.80;99.90;;;;;;5046766;27;20071;-88
2023/01/25 09:31:18;;;;;;;0.80;0.80;;;0.80;99.90;;;;;;5028909;27;20420;-88
2023/01/25 09:33:45;;;;;;;0.80;0.80;;;0.80;99.90;;;;;;5012301;27;20122;-89
2023/01/25 09:36:11;;;;;;;0.80;0.80;;;0.80;99.90;;;;;;5032657;27;20048;-91
2023/01/25 09:38:37;;;;;;;0.80;0.80;;;0.80;99.90;;;;;;5027117;27;20068;-89
2023/01/25 09:41:31;;;;;;;0.80;0.80;;;0.80;99.90;;;;;;5040917;27;20180;-89
2023/01/25 09:44:31;;;;;;;0.80;0.80;;;0.80;99.90;;;;;;5043512;27;20047;-90
2023/01/25 09:47:17;;;;;;;0.82;0.82;;;0.80;99.90;;;;;;5041553;27;20062;-88
2023/01/25 09:49:52;;;;;;;0.80;0.80;;;0.80;99.90;;;;;;5040166;27;20841;-90
2023/01/25 09:52:37;;;;;;;0.80;0.80;;;0.90;99.90;;;;;;5044362;27;20512;-89
2023/01/25 09:55:16;;;;;;;0.80;0.80;;;0.90;99.90;;;;;;5059675;27;20043;-88
2023/01/25 09:57:47;;;;;;;0.70;0.70;;;0.90;99.90;;;;;;5036967;27;20048;-89
2023/01/25 10:00:34;;;;;;;0.70;0.70;;;1.00;99.90;;;;;;5036280;28;20183;-90
2023/01/25 10:03:31;;;;;;;0.80;0.80;;;0.90;99.90;;;;;;5049146;27;20198;-88
2023/01/25 10:06:04;;;;;;;0.80;0.80;;;0.80;99.90;;;;;;5051048;28;20055;-92
2023/01/25 10:08:39;;;;;;;0.80;0.80;;;0.80;99.90;;;;;;5049890;28;20567;-92
2023/01/25 10:11:20;;;;;;;0.80;0.80;;;0.90;99.90;;;;;;5047841;28;20053;-89
2023/01/25 10:13:48;;;;;;;0.75;0.75;;;0.90;99.90;;;;;;5041050;28;20043;-88
2023/01/25 10:16:55;;;;;;;0.70;0.70;;;0.90;99.90;;;;;;5031370;28;20091;-89
2023/01/25 10:19:42;;;;;;;0.80;0.80;;;0.90;99.90;;;;;;4967424;28;20059;-89
2023/01/25 10:22:15;;;;;;;0.80;0.80;;;0.90;99.90;;;;;;5033938;28;20062;-88
2023/01/25 10:24:57;;;;;;;0.80;0.80;;;0.90;99.90;;;;;;5040572;28;20056;-89
2023/01/25 10:27:53;;;;;;;0.80;0.80;;;0.90;99.90;;;;;;5039529;28;20370;-89
2023/01/25 10:30:34;;;;;;;0.80;0.80;;;0.90;99.90;;;;;;5042567;28;20134;-90
2023/01/25 10:33:09;;;;;;;0.80;0.80;;;0.90;99.90;;;;;;5047270;28;20047;-90
2023/01/25 10:35:37;;;;;;;0.80;0.80;;;0.90;99.90;;;;;;5038827;28;20055;-88
2023/01/25 10:38:23;;;;;;;0.80;0.80;;;0.90;99.90;;;;;;5041652;28;20391;-89
2023/01/25 10:41:03;;;;;;;0.80;0.80;;;0.80;99.90;;;;;;5037702;28;20043;-88
2023/01/25 10:43:29;;;;;;;0.80;0.80;;;0.80;99.90;;;;;;5038743;28;20040;-88
2023/01/25 10:45:57;;;;;;;0.80;0.80;;;0.80;99.90;;;;;;5002629;28;20043;-89
2023/01/25 10:48:31;;;;;;;0.80;0.80;;;0.80;99.90;;;;;;5009789;28;20804;-90
2023/01/25 10:50:58;;;;;;;0.80;0.80;;;0.80;99.90;;;;;;5037801;27;20093;-89
2023/01/25 10:53:36;;;;;;;0.80;0.80;;;0.90;99.90;;;;;;5051639;27;20043;-90
2023/01/25 10:56:18;;;;;;;0.77;0.77;;;0.90;99.90;;;;;;5050592;27;20118;-91
2023/01/25 10:58:49;;;;;;;0.80;0.80;;;0.90;99.90;;;;;;5047770;27;20062;-91
2023/01/25 11:01:30;;;;;;;0.80;0.80;;;0.90;99.90;;;;;;5048477;27;20338;-89
2023/01/25 11:04:00;;;;;;;0.80;0.80;;;0.90;99.90;;;;;;5056200;27;20500;-91
2023/01/25 11:06:33;;;;;;;0.75;0.75;;;0.90;99.90;;;;;;5025175;27;20915;-91
2023/01/25 11:09:19;;;;;;;;;;;0.90;99.90;;;;;;5045648;27;20118;-91
2023/01/25 11:12:11;;;;;;;0.80;0.80;;;1.00;99.90;;;;;;5041236;27;19983;-90
2023/01/25 11:14:40;;;;;;;0.80;0.80;;;1.00;99.90;;;;;;5047434;27;20072;-93
2023/01/25 11:17:22;;;;;;;0.80;0.80;;;0.90;99.90;;;;;;5050174;27;20053;-90
2023/01/25 11:19:48;;;;;;;0.80;0.80;;;0.90;99.90;;;;;;5054700;27;20047;-91
2023/01/25 11:22:25;;;;;;;0.80;0.80;;;0.90;99.90;;;;;;5014120;27;20113;-89
2023/01/25 11:24:51;;;;;;;0.73;0.73;;;1.00;99.90;;;;;;5066846;27;20042;-91
2023/01/25 11:27:20;;;;;;;0.80;0.80;;;0.90;99.90;;;;;;5056714;27;20563;-91
2023/01/25 11:30:19;;;;;;;0.80;0.80;;;1.00;99.90;;;;;;5048795;27;20099;-91
2023/01/25 11:32:45;;;;;;;0.80;0.80;;;0.90;99.90;;;;;;5035214;27;20051;-89
2023/01/25 11:35:20;;;;;;;0.80;0.80;;;0.90;99.90;;;;;;5031776;27;20070;-91
2023/01/25 11:38:18;;;;;;;0.80;0.80;;;0.90;99.90;;;;;;5050426;27;20137;-90
2023/01/25 11:40:51;;;;;;;0.80;0.80;;;0.90;99.90;;;;;;5049888;27;20051;-91
2023/01/25 11:43:52;;;;;;;0.80;0.80;;;0.90;99.90;;;;;;5048212;27;20446;-93
2023/01/25 11:46:56;;;;;;;0.80;0.80;;;0.80;99.90;;;;;;5046373;27;20055;-90
2023/01/25 11:49:51;;;;;;;;;;;0.80;99.90;;;;;;5025507;27;20990;-90
2023/01/25 11:52:35;;;;;;;0.80;0.80;;;0.70;99.90;;;;;;5034643;27;19927;-91
2023/01/25 11:55:28;;;;;;;0.80;0.80;;;0.70;99.90;;;;;;5049492;27;20901;-91
2023/01/25 11:58:19;;;;;;;0.80;0.80;;;0.70;99.90;;;;;;5058154;27;20049;-92
2023/01/25 12:01:06;;;;;;;0.80;0.80;;;0.80;99.90;;;;;;5053071;27;20206;-92
2023/01/25 12:04:00;;;;;;;0.80;0.80;;;0.70;99.90;;;;;;5053992;27;20047;-91
2023/01/25 12:06:37;;;;;;;0.70;0.70;;;0.80;99.90;;;;;;5063444;27;20379;-91
2023/01/25 12:09:41;;;;;;;0.80;0.80;;;0.80;99.90;;;;;;5063472;27;20068;-92
2023/01/25 12:13:01;;;;;;;0.70;0.70;;;0.70;99.90;;;;;;5057084;27;20055;-91
2023/01/25 12:15:30;;;;;;;0.80;0.80;;;0.70;99.90;;;;;;5070518;27;20067;-92
2023/01/25 12:18:17;;;;;;;0.80;0.80;;;0.80;99.90;;;;;;5058031;27;20069;-90
2023/01/25 12:21:01;;;;;;;0.80;0.80;;;0.70;99.90;;;;;;5061099;27;20061;-92
2023/01/25 12:23:48;;;;;;;0.80;0.80;;;0.70;99.90;;;;;;5061354;27;20046;-91
2023/01/25 12:26:34;;;;;;;0.90;0.90;;;0.80;99.90;;;;;;5060447;27;20039;-90
2023/01/25 12:29:25;;;;;;;0.70;0.70;;;0.70;99.90;;;;;;5061956;27;20126;-92
2023/01/25 12:32:02;;;;;;;0.80;0.80;;;0.60;99.90;;;;;;5061801;27;20114;-90
2023/01/25 12:34:37;;;;;;;0.80;0.80;;;0.60;99.90;;;;;;5059879;27;20042;-92
2023/01/25 12:37:15;;;;;;;0.80;0.80;;;0.50;99.90;;;;;;5060861;27;20843;-93
2023/01/25 12:39:49;;;;;;;0.75;0.75;;;0.60;99.90;;;;;;5063074;27;20069;-90
2023/01/25 12:42:35;;;;;;;0.75;0.75;;;0.60;99.90;;;;;;5062159;27;20047;-92
2023/01/25 12:45:13;;;;;;;0.80;0.80;;;0.70;99.90;;;;;;5061201;27;20046;-93
2023/01/25 12:47:47;;;;;;;0.80;0.80;;;0.60;99.90;;;;;;5061470;27;20488;-93
2023/01/25 12:50:21;;;;;;;0.80;0.80;;;0.70;99.90;;;;;;5061433;27;20563;-90
2023/01/25 12:53:12;;;;;;;0.75;0.75;;;0.70;99.90;;;;;;5052951;27;20051;-92
2023/01/25 12:55:41;;;;;;;0.80;0.80;;;0.60;99.90;;;;;;5044508;27;20588;-92
2023/01/25 12:58:28;;;;;;;0.80;0.80;;;0.50;99.90;;;;;;5031968;27;20055;-91
2023/01/25 13:01:29;;;;;;;0.80;0.80;;;0.60;99.90;;;;;;5039242;27;20492;-92
2023/01/25 13:04:19;;;;;;;0.80;0.80;;;0.50;99.90;;;;;;5040427;27;20043;-95
2023/01/25 13:07:09;;;;;;;1.98;1.88;;;0.50;99.90;;;;;;5056411;27;20048;-93
2023/01/25 13:10:03;;;;;;;0.80;0.80;;;0.60;99.90;;;;;;5039558;27;20047;-96
2023/01/25 13:12:53;;;;;;;0.80;0.80;;;0.60;99.90;;;;;;5037227;27;20158;-92
2023/01/25 13:15:34;;;;;;;0.80;0.80;;;0.50;99.90;;;;;;5062075;27;20039;-93
2023/01/25 13:18:00;;;;;;;0.80;0.80;;;0.50;99.90;;;;;;5039920;27;20065;-92
2023/01/25 13:20:41;;;;;;;0.80;0.80;;;0.50;99.90;;;;;;5012362;27;20055;-92
2023/01/25 13:23:32;;;;;;;0.80;0.80;;;0.70;99.90;;;;;;5055316;27;20051;-91
2023/01/25 13:26:20;;;;;;;0.80;0.80;;;0.70;99.90;;;;;;5035643;27;20035;-90
2023/01/25 13:28:51;;;;;;;0.70;0.70;;;0.70;99.90;;;;;;5042509;27;20131;-92
2023/01/25 13:31:48;;;;;;;0.80;0.80;;;0.60;99.90;;;;;;5015775;27;20073;-90